sensor_id;sensor_type;location;lat;lon;timestamp;P1;durP1;ratioP1;P2;durP2;ratioP2
38972;SDS011;25333;50.762;4.470;2022-12-29T00:00:00;2.05;;;0.60;;
38972;SDS011;25333;50.762;4.470;2022-12-29T00:02:26;4.43;;;0.60;;
38972;SDS011;25333;50.762;4.470;2022-12-29T00:04:52;2.35;;;0.68;;
38972;SDS011;25333;50.762;4.470;2022-12-29T00:07:20;0.77;;;0.40;;
38972;SDS011;25333;50.762;4.470;2022-12-29T00:09:46;1.15;;;0.20;;
38972;SDS011;25333;50.762;4.470;2022-12-29T00:12:11;2.45;;;0.32;;
38972;SDS011;25333;50.762;4.470;2022-12-29T00:14:37;1.75;;;0.40;;
38972;SDS011;25333;50.762;4.470;2022-12-29T00:17:21;3.20;;;0.40;;
38972;SDS011;25333;50.762;4.470;2022-12-29T00:19:47;1.92;;;0.45;;
38972;SDS011;25333;50.762;4.470;2022-12-29T00:22:31;1.33;;;0.22;;
38972;SDS011;25333;50.762;4.470;2022-12-29T00:25:18;0.70;;;0.35;;
38972;SDS011;25333;50.762;4.470;2022-12-29T00:28:07;0.90;;;0.20;;
38972;SDS011;25333;50.762;4.470;2022-12-29T00:30:52;1.67;;;0.30;;
38972;SDS011;25333;50.762;4.470;2022-12-29T00:33:37;1.27;;;0.33;;
38972;SDS011;25333;50.762;4.470;2022-12-29T00:38:53;3.00;;;0.32;;
38972;SDS011;25333;50.762;4.470;2022-12-29T00:41:44;3.80;;;0.22;;
38972;SDS011;25333;50.762;4.470;2022-12-29T00:44:29;1.17;;;0.30;;
38972;SDS011;25333;50.762;4.470;2022-12-29T00:46:55;1.33;;;0.30;;
38972;SDS011;25333;50.762;4.470;2022-12-29T00:49:27;1.90;;;0.32;;
38972;SDS011;25333;50.762;4.470;2022-12-29T00:51:57;2.00;;;0.52;;
38972;SDS011;25333;50.762;4.470;2022-12-29T00:54:28;2.77;;;0.50;;
38972;SDS011;25333;50.762;4.470;2022-12-29T00:56:55;3.15;;;0.63;;
38972;SDS011;25333;50.762;4.470;2022-12-29T00:59:21;1.67;;;0.40;;
38972;SDS011;25333;50.762;4.470;2022-12-29T01:01:50;2.45;;;0.45;;
38972;SDS011;25333;50.762;4.470;2022-12-29T01:04:17;3.08;;;0.47;;
38972;SDS011;25333;50.762;4.470;2022-12-29T01:06:44;4.22;;;0.95;;
38972;SDS011;25333;50.762;4.470;2022-12-29T01:09:10;3.10;;;0.70;;
38972;SDS011;25333;50.762;4.470;2022-12-29T01:11:55;2.22;;;0.40;;
38972;SDS011;25333;50.762;4.470;2022-12-29T01:14:21;1.52;;;0.35;;
38972;SDS011;25333;50.762;4.470;2022-12-29T01:16:47;3.17;;;0.88;;
38972;SDS011;25333;50.762;4.470;2022-12-29T01:19:25;2.08;;;0.68;;
38972;SDS011;25333;50.762;4.470;2022-12-29T01:21:54;3.40;;;0.60;;
38972;SDS011;25333;50.762;4.470;2022-12-29T01:24:20;1.92;;;0.60;;
38972;SDS011;25333;50.762;4.470;2022-12-29T01:26:46;2.55;;;0.30;;
38972;SDS011;25333;50.762;4.470;2022-12-29T01:29:13;2.15;;;0.40;;
38972;SDS011;25333;50.762;4.470;2022-12-29T01:31:39;3.00;;;0.60;;
38972;SDS011;25333;50.762;4.470;2022-12-29T01:34:05;2.05;;;0.57;;
38972;SDS011;25333;50.762;4.470;2022-12-29T01:36:31;3.67;;;1.03;;
38972;SDS011;25333;50.762;4.470;2022-12-29T01:38:57;3.22;;;0.75;;
38972;SDS011;25333;50.762;4.470;2022-12-29T01:41:22;3.40;;;1.10;;
38972;SDS011;25333;50.762;4.470;2022-12-29T01:43:49;2.00;;;0.47;;
38972;SDS011;25333;50.762;4.470;2022-12-29T01:48:49;2.53;;;0.70;;
38972;SDS011;25333;50.762;4.470;2022-12-29T01:51:17;2.35;;;0.80;;
38972;SDS011;25333;50.762;4.470;2022-12-29T01:53:43;2.35;;;0.55;;
38972;SDS011;25333;50.762;4.470;2022-12-29T01:56:10;3.47;;;0.87;;
38972;SDS011;25333;50.762;4.470;2022-12-29T01:58:39;3.63;;;1.20;;
38972;SDS011;25333;50.762;4.470;2022-12-29T02:01:09;3.92;;;0.60;;
38972;SDS011;25333;50.762;4.470;2022-12-29T02:03:35;3.17;;;0.70;;
38972;SDS011;25333;50.762;4.470;2022-12-29T02:08:33;2.17;;;0.80;;
38972;SDS011;25333;50.762;4.470;2022-12-29T02:10:59;1.00;;;0.47;;
38972;SDS011;25333;50.762;4.470;2022-12-29T02:13:26;2.33;;;0.68;;
38972;SDS011;25333;50.762;4.470;2022-12-29T02:21:39;6.03;;;0.60;;
38972;SDS011;25333;50.762;4.470;2022-12-29T02:27:40;2.50;;;0.47;;
38972;SDS011;25333;50.762;4.470;2022-12-29T02:44:12;1.15;;;0.40;;
38972;SDS011;25333;50.762;4.470;2022-12-29T02:46:51;2.25;;;0.40;;
38972;SDS011;25333;50.762;4.470;2022-12-29T02:49:20;1.48;;;0.40;;
38972;SDS011;25333;50.762;4.470;2022-12-29T02:52:18;2.30;;;0.40;;
38972;SDS011;25333;50.762;4.470;2022-12-29T02:54:48;2.60;;;0.38;;
38972;SDS011;25333;50.762;4.470;2022-12-29T02:57:26;1.25;;;0.20;;
38972;SDS011;25333;50.762;4.470;2022-12-29T03:00:05;1.63;;;0.30;;
38972;SDS011;25333;50.762;4.470;2022-12-29T03:05:21;0.50;;;0.17;;
38972;SDS011;25333;50.762;4.470;2022-12-29T03:08:09;3.17;;;0.47;;
38972;SDS011;25333;50.762;4.470;2022-12-29T03:10:49;0.63;;;0.20;;
38972;SDS011;25333;50.762;4.470;2022-12-29T03:13:27;1.45;;;0.20;;
38972;SDS011;25333;50.762;4.470;2022-12-29T03:16:19;1.73;;;0.30;;
38972;SDS011;25333;50.762;4.470;2022-12-29T03:19:02;1.52;;;0.38;;
38972;SDS011;25333;50.762;4.470;2022-12-29T03:21:41;0.50;;;0.10;;
38972;SDS011;25333;50.762;4.470;2022-12-29T03:24:30;3.90;;;0.50;;
38972;SDS011;25333;50.762;4.470;2022-12-29T03:27:06;0.90;;;0.40;;
38972;SDS011;25333;50.762;4.470;2022-12-29T03:29:37;3.40;;;0.68;;
38972;SDS011;25333;50.762;4.470;2022-12-29T03:32:07;5.90;;;0.50;;
38972;SDS011;25333;50.762;4.470;2022-12-29T03:34:34;1.83;;;0.32;;
38972;SDS011;25333;50.762;4.470;2022-12-29T03:37:06;1.60;;;0.50;;
38972;SDS011;25333;50.762;4.470;2022-12-29T03:39:39;2.50;;;0.40;;
38972;SDS011;25333;50.762;4.470;2022-12-29T03:42:06;4.88;;;0.40;;
38972;SDS011;25333;50.762;4.470;2022-12-29T03:44:38;2.95;;;0.40;;
38972;SDS011;25333;50.762;4.470;2022-12-29T03:47:06;2.95;;;0.35;;
38972;SDS011;25333;50.762;4.470;2022-12-29T03:49:32;1.90;;;0.47;;
38972;SDS011;25333;50.762;4.470;2022-12-29T03:51:58;3.67;;;0.30;;
38972;SDS011;25333;50.762;4.470;2022-12-29T03:54:23;4.50;;;0.60;;
38972;SDS011;25333;50.762;4.470;2022-12-29T03:56:50;2.28;;;0.80;;
38972;SDS011;25333;50.762;4.470;2022-12-29T03:59:15;5.10;;;0.75;;
38972;SDS011;25333;50.762;4.470;2022-12-29T04:01:41;2.80;;;0.40;;
38972;SDS011;25333;50.762;4.470;2022-12-29T04:04:07;5.43;;;0.50;;
38972;SDS011;25333;50.762;4.470;2022-12-29T04:06:32;2.97;;;0.53;;
38972;SDS011;25333;50.762;4.470;2022-12-29T04:08:58;4.25;;;0.35;;
38972;SDS011;25333;50.762;4.470;2022-12-29T04:11:24;3.47;;;0.40;;
38972;SDS011;25333;50.762;4.470;2022-12-29T04:13:49;3.22;;;0.35;;
38972;SDS011;25333;50.762;4.470;2022-12-29T04:16:15;3.87;;;0.60;;
38972;SDS011;25333;50.762;4.470;2022-12-29T04:18:41;4.72;;;0.57;;
38972;SDS011;25333;50.762;4.470;2022-12-29T04:21:06;2.13;;;0.37;;
38972;SDS011;25333;50.762;4.470;2022-12-29T04:23:33;4.68;;;0.60;;
38972;SDS011;25333;50.762;4.470;2022-12-29T04:26:01;3.55;;;0.38;;
38972;SDS011;25333;50.762;4.470;2022-12-29T04:28:27;3.13;;;0.32;;
38972;SDS011;25333;50.762;4.470;2022-12-29T04:30:53;2.15;;;0.60;;
38972;SDS011;25333;50.762;4.470;2022-12-29T04:33:19;2.58;;;0.50;;
38972;SDS011;25333;50.762;4.470;2022-12-29T04:35:48;1.55;;;0.30;;
38972;SDS011;25333;50.762;4.470;2022-12-29T04:38:14;3.17;;;0.50;;
38972;SDS011;25333;50.762;4.470;2022-12-29T04:40:40;1.17;;;0.30;;
38972;SDS011;25333;50.762;4.470;2022-12-29T04:43:08;4.30;;;0.60;;
38972;SDS011;25333;50.762;4.470;2022-12-29T04:45:34;2.08;;;0.25;;
38972;SDS011;25333;50.762;4.470;2022-12-29T04:48:00;2.23;;;0.60;;
38972;SDS011;25333;50.762;4.470;2022-12-29T04:50:26;3.25;;;0.68;;
38972;SDS011;25333;50.762;4.470;2022-12-29T04:52:51;3.13;;;0.30;;
38972;SDS011;25333;50.762;4.470;2022-12-29T04:55:17;2.30;;;0.50;;
38972;SDS011;25333;50.762;4.470;2022-12-29T04:57:43;3.50;;;0.47;;
38972;SDS011;25333;50.762;4.470;2022-12-29T05:00:09;5.13;;;0.68;;
38972;SDS011;25333;50.762;4.470;2022-12-29T05:02:36;5.78;;;0.60;;
38972;SDS011;25333;50.762;4.470;2022-12-29T05:05:03;4.00;;;0.60;;
38972;SDS011;25333;50.762;4.470;2022-12-29T05:07:29;4.25;;;0.70;;
38972;SDS011;25333;50.762;4.470;2022-12-29T05:09:55;3.85;;;0.70;;
38972;SDS011;25333;50.762;4.470;2022-12-29T05:12:20;3.00;;;0.50;;
38972;SDS011;25333;50.762;4.470;2022-12-29T05:14:46;2.97;;;0.50;;
38972;SDS011;25333;50.762;4.470;2022-12-29T05:17:12;4.53;;;0.83;;
38972;SDS011;25333;50.762;4.470;2022-12-29T05:19:37;2.65;;;0.40;;
38972;SDS011;25333;50.762;4.470;2022-12-29T05:22:03;2.90;;;0.70;;
38972;SDS011;25333;50.762;4.470;2022-12-29T05:24:29;3.90;;;0.52;;
38972;SDS011;25333;50.762;4.470;2022-12-29T05:26:55;2.85;;;0.40;;
38972;SDS011;25333;50.762;4.470;2022-12-29T05:29:21;5.70;;;1.05;;
38972;SDS011;25333;50.762;4.470;2022-12-29T05:31:46;4.40;;;0.50;;
38972;SDS011;25333;50.762;4.470;2022-12-29T05:34:12;5.80;;;0.88;;
38972;SDS011;25333;50.762;4.470;2022-12-29T05:36:38;2.92;;;0.47;;
38972;SDS011;25333;50.762;4.470;2022-12-29T05:39:04;3.15;;;0.70;;
38972;SDS011;25333;50.762;4.470;2022-12-29T05:41:32;5.40;;;1.08;;
38972;SDS011;25333;50.762;4.470;2022-12-29T05:43:58;6.13;;;0.80;;
38972;SDS011;25333;50.762;4.470;2022-12-29T05:46:24;5.78;;;0.70;;
38972;SDS011;25333;50.762;4.470;2022-12-29T05:48:49;6.50;;;0.90;;
38972;SDS011;25333;50.762;4.470;2022-12-29T05:51:15;3.88;;;0.75;;
38972;SDS011;25333;50.762;4.470;2022-12-29T05:53:40;6.87;;;1.23;;
38972;SDS011;25333;50.762;4.470;2022-12-29T05:56:06;6.95;;;0.70;;
38972;SDS011;25333;50.762;4.470;2022-12-29T05:58:32;4.13;;;0.73;;
38972;SDS011;25333;50.762;4.470;2022-12-29T06:00:57;3.10;;;0.82;;
38972;SDS011;25333;50.762;4.470;2022-12-29T06:03:23;4.37;;;0.77;;
38972;SDS011;25333;50.762;4.470;2022-12-29T06:05:49;6.95;;;1.20;;
38972;SDS011;25333;50.762;4.470;2022-12-29T06:08:14;3.23;;;0.73;;
38972;SDS011;25333;50.762;4.470;2022-12-29T06:10:40;6.93;;;1.00;;
38972;SDS011;25333;50.762;4.470;2022-12-29T06:13:06;3.40;;;0.57;;
38972;SDS011;25333;50.762;4.470;2022-12-29T06:15:32;5.25;;;0.73;;
38972;SDS011;25333;50.762;4.470;2022-12-29T06:17:58;6.38;;;0.80;;
38972;SDS011;25333;50.762;4.470;2022-12-29T06:20:24;4.53;;;0.68;;
38972;SDS011;25333;50.762;4.470;2022-12-29T06:22:50;3.58;;;0.88;;
38972;SDS011;25333;50.762;4.470;2022-12-29T06:25:15;6.83;;;1.07;;
38972;SDS011;25333;50.762;4.470;2022-12-29T06:27:44;4.90;;;0.98;;
38972;SDS011;25333;50.762;4.470;2022-12-29T06:30:10;4.38;;;0.90;;
38972;SDS011;25333;50.762;4.470;2022-12-29T06:32:36;7.88;;;1.10;;
38972;SDS011;25333;50.762;4.470;2022-12-29T06:35:03;5.68;;;0.80;;
38972;SDS011;25333;50.762;4.470;2022-12-29T06:37:29;5.72;;;0.73;;
38972;SDS011;25333;50.762;4.470;2022-12-29T06:39:57;8.15;;;1.20;;
38972;SDS011;25333;50.762;4.470;2022-12-29T06:42:23;5.90;;;1.27;;
38972;SDS011;25333;50.762;4.470;2022-12-29T06:44:48;3.60;;;0.67;;
38972;SDS011;25333;50.762;4.470;2022-12-29T06:47:14;6.65;;;0.88;;
38972;SDS011;25333;50.762;4.470;2022-12-29T06:49:40;5.47;;;1.10;;
38972;SDS011;25333;50.762;4.470;2022-12-29T06:52:06;4.78;;;0.90;;
38972;SDS011;25333;50.762;4.470;2022-12-29T06:54:31;4.93;;;0.93;;
38972;SDS011;25333;50.762;4.470;2022-12-29T06:56:57;4.43;;;0.83;;
38972;SDS011;25333;50.762;4.470;2022-12-29T06:59:23;4.50;;;1.17;;
38972;SDS011;25333;50.762;4.470;2022-12-29T07:01:49;3.58;;;0.32;;
38972;SDS011;25333;50.762;4.470;2022-12-29T07:04:15;4.88;;;1.23;;
38972;SDS011;25333;50.762;4.470;2022-12-29T07:06:41;3.13;;;0.63;;
38972;SDS011;25333;50.762;4.470;2022-12-29T07:09:07;8.77;;;1.40;;
38972;SDS011;25333;50.762;4.470;2022-12-29T07:11:33;4.18;;;1.10;;
38972;SDS011;25333;50.762;4.470;2022-12-29T07:13:59;6.88;;;0.98;;
38972;SDS011;25333;50.762;4.470;2022-12-29T07:16:25;4.23;;;0.73;;
38972;SDS011;25333;50.762;4.470;2022-12-29T07:18:51;5.97;;;1.10;;
38972;SDS011;25333;50.762;4.470;2022-12-29T07:21:17;8.52;;;1.20;;
38972;SDS011;25333;50.762;4.470;2022-12-29T07:23:44;5.45;;;1.02;;
38972;SDS011;25333;50.762;4.470;2022-12-29T07:26:10;8.80;;;1.40;;
38972;SDS011;25333;50.762;4.470;2022-12-29T07:28:38;10.43;;;1.45;;
38972;SDS011;25333;50.762;4.470;2022-12-29T07:31:04;5.77;;;1.13;;
38972;SDS011;25333;50.762;4.470;2022-12-29T07:33:31;6.88;;;1.08;;
38972;SDS011;25333;50.762;4.470;2022-12-29T07:35:57;7.97;;;1.07;;
38972;SDS011;25333;50.762;4.470;2022-12-29T07:38:24;4.38;;;1.23;;
38972;SDS011;25333;50.762;4.470;2022-12-29T07:40:49;10.48;;;1.50;;
38972;SDS011;25333;50.762;4.470;2022-12-29T07:43:15;8.60;;;1.27;;
38972;SDS011;25333;50.762;4.470;2022-12-29T07:45:41;5.40;;;1.30;;
38972;SDS011;25333;50.762;4.470;2022-12-29T07:48:06;4.40;;;0.87;;
38972;SDS011;25333;50.762;4.470;2022-12-29T07:50:33;5.72;;;0.98;;
38972;SDS011;25333;50.762;4.470;2022-12-29T07:52:59;5.78;;;0.93;;
38972;SDS011;25333;50.762;4.470;2022-12-29T07:55:25;6.13;;;1.08;;
38972;SDS011;25333;50.762;4.470;2022-12-29T07:57:54;6.30;;;0.90;;
38972;SDS011;25333;50.762;4.470;2022-12-29T08:00:20;9.35;;;1.65;;
38972;SDS011;25333;50.762;4.470;2022-12-29T08:02:47;6.53;;;1.40;;
38972;SDS011;25333;50.762;4.470;2022-12-29T08:05:12;5.53;;;1.13;;
38972;SDS011;25333;50.762;4.470;2022-12-29T08:07:38;9.10;;;1.20;;
38972;SDS011;25333;50.762;4.470;2022-12-29T08:10:04;5.20;;;1.43;;
38972;SDS011;25333;50.762;4.470;2022-12-29T08:12:30;7.75;;;1.40;;
38972;SDS011;25333;50.762;4.470;2022-12-29T08:14:56;7.17;;;1.10;;
38972;SDS011;25333;50.762;4.470;2022-12-29T08:17:21;6.97;;;1.20;;
38972;SDS011;25333;50.762;4.470;2022-12-29T08:19:47;5.33;;;1.20;;
38972;SDS011;25333;50.762;4.470;2022-12-29T08:22:13;5.22;;;0.70;;
38972;SDS011;25333;50.762;4.470;2022-12-29T08:24:39;5.50;;;1.13;;
38972;SDS011;25333;50.762;4.470;2022-12-29T08:27:05;3.90;;;1.38;;
38972;SDS011;25333;50.762;4.470;2022-12-29T08:29:31;3.80;;;1.15;;
38972;SDS011;25333;50.762;4.470;2022-12-29T08:31:57;7.53;;;1.52;;
38972;SDS011;25333;50.762;4.470;2022-12-29T08:34:22;5.50;;;1.00;;
38972;SDS011;25333;50.762;4.470;2022-12-29T08:36:48;8.90;;;1.35;;
38972;SDS011;25333;50.762;4.470;2022-12-29T08:39:14;5.23;;;1.37;;
38972;SDS011;25333;50.762;4.470;2022-12-29T08:41:39;5.03;;;1.23;;
38972;SDS011;25333;50.762;4.470;2022-12-29T08:44:05;8.60;;;1.33;;
38972;SDS011;25333;50.762;4.470;2022-12-29T08:46:31;4.03;;;0.85;;
38972;SDS011;25333;50.762;4.470;2022-12-29T08:48:56;5.00;;;1.17;;
38972;SDS011;25333;50.762;4.470;2022-12-29T08:51:33;6.28;;;1.40;;
38972;SDS011;25333;50.762;4.470;2022-12-29T08:53:59;6.40;;;1.20;;
38972;SDS011;25333;50.762;4.470;2022-12-29T08:56:25;8.13;;;1.53;;
38972;SDS011;25333;50.762;4.470;2022-12-29T08:58:53;7.38;;;1.08;;
38972;SDS011;25333;50.762;4.470;2022-12-29T09:01:20;7.80;;;1.15;;
38972;SDS011;25333;50.762;4.470;2022-12-29T09:06:48;4.32;;;1.08;;
38972;SDS011;25333;50.762;4.470;2022-12-29T09:09:20;6.85;;;1.25;;
38972;SDS011;25333;50.762;4.470;2022-12-29T09:11:48;8.52;;;1.55;;
38972;SDS011;25333;50.762;4.470;2022-12-29T09:14:13;5.20;;;1.17;;
38972;SDS011;25333;50.762;4.470;2022-12-29T09:16:39;12.25;;;2.20;;
38972;SDS011;25333;50.762;4.470;2022-12-29T09:19:24;6.05;;;1.50;;
38972;SDS011;25333;50.762;4.470;2022-12-29T09:21:55;4.78;;;1.50;;
38972;SDS011;25333;50.762;4.470;2022-12-29T09:24:20;11.13;;;1.50;;
38972;SDS011;25333;50.762;4.470;2022-12-29T09:26:46;6.77;;;1.33;;
38972;SDS011;25333;50.762;4.470;2022-12-29T09:29:12;9.38;;;1.23;;
38972;SDS011;25333;50.762;4.470;2022-12-29T09:31:40;7.77;;;1.53;;
38972;SDS011;25333;50.762;4.470;2022-12-29T09:34:06;6.85;;;1.20;;
38972;SDS011;25333;50.762;4.470;2022-12-29T09:36:32;8.00;;;1.42;;
38972;SDS011;25333;50.762;4.470;2022-12-29T09:39:00;6.85;;;1.15;;
38972;SDS011;25333;50.762;4.470;2022-12-29T09:41:30;9.38;;;1.77;;
38972;SDS011;25333;50.762;4.470;2022-12-29T09:44:16;9.50;;;1.30;;
38972;SDS011;25333;50.762;4.470;2022-12-29T09:47:11;4.47;;;1.40;;
38972;SDS011;25333;50.762;4.470;2022-12-29T09:52:13;5.90;;;1.20;;
38972;SDS011;25333;50.762;4.470;2022-12-29T09:57:27;9.60;;;2.00;;
38972;SDS011;25333;50.762;4.470;2022-12-29T10:00:10;7.77;;;1.77;;
38972;SDS011;25333;50.762;4.470;2022-12-29T10:03:05;7.72;;;1.40;;
38972;SDS011;25333;50.762;4.470;2022-12-29T10:05:52;12.52;;;1.75;;
38972;SDS011;25333;50.762;4.470;2022-12-29T10:20:12;6.25;;;1.58;;
38972;SDS011;25333;50.762;4.470;2022-12-29T10:23:03;6.63;;;1.63;;
38972;SDS011;25333;50.762;4.470;2022-12-29T10:25:38;11.30;;;1.83;;
38972;SDS011;25333;50.762;4.470;2022-12-29T10:28:16;8.23;;;1.67;;
38972;SDS011;25333;50.762;4.470;2022-12-29T10:30:47;7.70;;;2.00;;
38972;SDS011;25333;50.762;4.470;2022-12-29T10:33:15;7.28;;;1.45;;
38972;SDS011;25333;50.762;4.470;2022-12-29T10:35:48;7.05;;;1.60;;
38972;SDS011;25333;50.762;4.470;2022-12-29T10:41:13;4.07;;;1.30;;
38972;SDS011;25333;50.762;4.470;2022-12-29T10:43:51;7.72;;;1.52;;
38972;SDS011;25333;50.762;4.470;2022-12-29T10:46:20;4.90;;;1.30;;
38972;SDS011;25333;50.762;4.470;2022-12-29T10:48:49;6.25;;;1.65;;
38972;SDS011;25333;50.762;4.470;2022-12-29T10:51:20;5.72;;;1.63;;
38972;SDS011;25333;50.762;4.470;2022-12-29T10:53:51;8.90;;;1.30;;
38972;SDS011;25333;50.762;4.470;2022-12-29T10:59:16;8.93;;;1.75;;
38972;SDS011;25333;50.762;4.470;2022-12-29T11:07:46;6.88;;;1.45;;
38972;SDS011;25333;50.762;4.470;2022-12-29T11:10:57;6.68;;;1.67;;
38972;SDS011;25333;50.762;4.470;2022-12-29T11:13:13;8.20;;;1.45;;
38972;SDS011;25333;50.762;4.470;2022-12-29T11:15:49;8.90;;;1.65;;
38972;SDS011;25333;50.762;4.470;2022-12-29T11:18:19;7.00;;;1.87;;
38972;SDS011;25333;50.762;4.470;2022-12-29T11:20:48;8.45;;;1.50;;
38972;SDS011;25333;50.762;4.470;2022-12-29T11:26:20;7.97;;;1.67;;
38972;SDS011;25333;50.762;4.470;2022-12-29T11:29:10;6.97;;;1.27;;
38972;SDS011;25333;50.762;4.470;2022-12-29T11:31:42;7.10;;;1.40;;
38972;SDS011;25333;50.762;4.470;2022-12-29T11:34:19;7.22;;;1.60;;
38972;SDS011;25333;50.762;4.470;2022-12-29T11:36:53;8.23;;;1.58;;
38972;SDS011;25333;50.762;4.470;2022-12-29T11:39:50;10.77;;;1.98;;
38972;SDS011;25333;50.762;4.470;2022-12-29T11:42:20;5.45;;;1.45;;
38972;SDS011;25333;50.762;4.470;2022-12-29T11:44:53;7.10;;;1.38;;
38972;SDS011;25333;50.762;4.470;2022-12-29T11:47:26;6.97;;;1.43;;
38972;SDS011;25333;50.762;4.470;2022-12-29T11:50:03;13.18;;;1.85;;
38972;SDS011;25333;50.762;4.470;2022-12-29T11:52:32;7.85;;;1.52;;
38972;SDS011;25333;50.762;4.470;2022-12-29T11:55:05;6.30;;;1.45;;
38972;SDS011;25333;50.762;4.470;2022-12-29T11:57:41;6.80;;;1.40;;
38972;SDS011;25333;50.762;4.470;2022-12-29T12:00:15;7.68;;;1.60;;
38972;SDS011;25333;50.762;4.470;2022-12-29T12:02:49;8.70;;;1.60;;
38972;SDS011;25333;50.762;4.470;2022-12-29T12:08:37;7.30;;;1.52;;
38972;SDS011;25333;50.762;4.470;2022-12-29T12:11:13;9.75;;;1.33;;
38972;SDS011;25333;50.762;4.470;2022-12-29T12:16:55;6.32;;;1.45;;
38972;SDS011;25333;50.762;4.470;2022-12-29T12:25:16;6.23;;;1.67;;
38972;SDS011;25333;50.762;4.470;2022-12-29T12:30:59;7.35;;;2.13;;
38972;SDS011;25333;50.762;4.470;2022-12-29T12:33:31;9.23;;;1.42;;
38972;SDS011;25333;50.762;4.470;2022-12-29T12:43:51;5.55;;;1.30;;
38972;SDS011;25333;50.762;4.470;2022-12-29T13:00:55;6.80;;;1.65;;
38972;SDS011;25333;50.762;4.470;2022-12-29T13:20:52;11.10;;;2.00;;
38972;SDS011;25333;50.762;4.470;2022-12-29T13:26:12;7.57;;;1.97;;
38972;SDS011;25333;50.762;4.470;2022-12-29T13:32:13;10.02;;;1.70;;
38972;SDS011;25333;50.762;4.470;2022-12-29T13:37:20;8.05;;;2.00;;
38972;SDS011;25333;50.762;4.470;2022-12-29T13:39:51;10.25;;;1.90;;
38972;SDS011;25333;50.762;4.470;2022-12-29T13:42:21;10.43;;;1.85;;
38972;SDS011;25333;50.762;4.470;2022-12-29T13:44:51;8.43;;;1.90;;
38972;SDS011;25333;50.762;4.470;2022-12-29T13:47:42;6.55;;;2.10;;
38972;SDS011;25333;50.762;4.470;2022-12-29T13:50:19;7.67;;;1.77;;
38972;SDS011;25333;50.762;4.470;2022-12-29T13:52:49;7.95;;;2.15;;
38972;SDS011;25333;50.762;4.470;2022-12-29T13:55:35;6.22;;;1.83;;
38972;SDS011;25333;50.762;4.470;2022-12-29T14:00:53;9.23;;;2.20;;
38972;SDS011;25333;50.762;4.470;2022-12-29T14:08:49;11.82;;;2.58;;
38972;SDS011;25333;50.762;4.470;2022-12-29T14:11:20;11.50;;;2.03;;
38972;SDS011;25333;50.762;4.470;2022-12-29T14:13:49;9.48;;;1.98;;
38972;SDS011;25333;50.762;4.470;2022-12-29T14:19:19;13.25;;;2.83;;
38972;SDS011;25333;50.762;4.470;2022-12-29T14:21:52;12.48;;;2.50;;
38972;SDS011;25333;50.762;4.470;2022-12-29T14:24:27;7.03;;;1.92;;
38972;SDS011;25333;50.762;4.470;2022-12-29T14:26:56;7.68;;;1.67;;
38972;SDS011;25333;50.762;4.470;2022-12-29T14:31:51;5.97;;;1.85;;
38972;SDS011;25333;50.762;4.470;2022-12-29T14:42:19;10.05;;;2.08;;
38972;SDS011;25333;50.762;4.470;2022-12-29T14:44:51;10.23;;;1.73;;
38972;SDS011;25333;50.762;4.470;2022-12-29T14:47:42;10.75;;;2.50;;
38972;SDS011;25333;50.762;4.470;2022-12-29T14:50:38;8.27;;;1.58;;
38972;SDS011;25333;50.762;4.470;2022-12-29T14:53:06;12.35;;;2.42;;
38972;SDS011;25333;50.762;4.470;2022-12-29T14:56:12;8.77;;;1.75;;
38972;SDS011;25333;50.762;4.470;2022-12-29T14:59:02;10.65;;;1.30;;
38972;SDS011;25333;50.762;4.470;2022-12-29T15:04:13;7.43;;;1.70;;
38972;SDS011;25333;50.762;4.470;2022-12-29T15:06:43;12.43;;;2.80;;
38972;SDS011;25333;50.762;4.470;2022-12-29T15:12:35;6.35;;;2.10;;
38972;SDS011;25333;50.762;4.470;2022-12-29T15:18:49;9.50;;;2.33;;
38972;SDS011;25333;50.762;4.470;2022-12-29T15:21:20;10.80;;;2.33;;
38972;SDS011;25333;50.762;4.470;2022-12-29T15:39:52;11.25;;;2.80;;
38972;SDS011;25333;50.762;4.470;2022-12-29T16:02:40;12.60;;;2.45;;
38972;SDS011;25333;50.762;4.470;2022-12-29T16:13:29;10.32;;;2.40;;
38972;SDS011;25333;50.762;4.470;2022-12-29T16:18:44;10.15;;;2.58;;
38972;SDS011;25333;50.762;4.470;2022-12-29T16:27:55;7.38;;;2.30;;
38972;SDS011;25333;50.762;4.470;2022-12-29T16:30:22;7.20;;;2.58;;
38972;SDS011;25333;50.762;4.470;2022-12-29T16:54:35;10.93;;;2.80;;
38972;SDS011;25333;50.762;4.470;2022-12-29T17:04:10;10.35;;;3.03;;
38972;SDS011;25333;50.762;4.470;2022-12-29T17:09:58;9.27;;;2.28;;
38972;SDS011;25333;50.762;4.470;2022-12-29T17:12:37;9.93;;;1.83;;
38972;SDS011;25333;50.762;4.470;2022-12-29T17:18:06;12.73;;;2.55;;
38972;SDS011;25333;50.762;4.470;2022-12-29T17:20:35;8.73;;;1.90;;
38972;SDS011;25333;50.762;4.470;2022-12-29T17:36:10;6.70;;;1.50;;
38972;SDS011;25333;50.762;4.470;2022-12-29T17:38:36;11.65;;;2.25;;
38972;SDS011;25333;50.762;4.470;2022-12-29T17:41:02;9.68;;;1.98;;
38972;SDS011;25333;50.762;4.470;2022-12-29T17:43:28;5.38;;;1.35;;
38972;SDS011;25333;50.762;4.470;2022-12-29T18:34:19;9.27;;;2.50;;
38972;SDS011;25333;50.762;4.470;2022-12-29T18:36:45;9.07;;;2.55;;
38972;SDS011;25333;50.762;4.470;2022-12-29T18:39:11;6.93;;;1.93;;
38972;SDS011;25333;50.762;4.470;2022-12-29T18:41:40;7.93;;;2.03;;
38972;SDS011;25333;50.762;4.470;2022-12-29T18:44:17;10.43;;;2.42;;
38972;SDS011;25333;50.762;4.470;2022-12-29T18:46:45;4.77;;;1.90;;
38972;SDS011;25333;50.762;4.470;2022-12-29T18:49:17;7.88;;;2.15;;
38972;SDS011;25333;50.762;4.470;2022-12-29T18:52:10;12.10;;;3.00;;
38972;SDS011;25333;50.762;4.470;2022-12-29T18:54:40;11.70;;;2.28;;
38972;SDS011;25333;50.762;4.470;2022-12-29T18:57:22;11.75;;;2.40;;
38972;SDS011;25333;50.762;4.470;2022-12-29T18:59:47;10.00;;;2.13;;
38972;SDS011;25333;50.762;4.470;2022-12-29T19:02:16;8.90;;;2.30;;
38972;SDS011;25333;50.762;4.470;2022-12-29T19:04:42;14.95;;;3.10;;
38972;SDS011;25333;50.762;4.470;2022-12-29T19:07:08;11.00;;;2.33;;
38972;SDS011;25333;50.762;4.470;2022-12-29T19:09:49;8.20;;;2.55;;
38972;SDS011;25333;50.762;4.470;2022-12-29T19:15:04;7.60;;;2.03;;
38972;SDS011;25333;50.762;4.470;2022-12-29T19:17:34;9.88;;;2.50;;
38972;SDS011;25333;50.762;4.470;2022-12-29T19:23:10;12.02;;;3.20;;
38972;SDS011;25333;50.762;4.470;2022-12-29T19:26:23;12.00;;;2.90;;
38972;SDS011;25333;50.762;4.470;2022-12-29T19:28:53;7.07;;;2.13;;
38972;SDS011;25333;50.762;4.470;2022-12-29T19:31:19;9.60;;;3.08;;
38972;SDS011;25333;50.762;4.470;2022-12-29T19:33:45;14.60;;;3.22;;
38972;SDS011;25333;50.762;4.470;2022-12-29T19:36:20;9.10;;;2.65;;
38972;SDS011;25333;50.762;4.470;2022-12-29T19:38:54;9.23;;;2.95;;
38972;SDS011;25333;50.762;4.470;2022-12-29T19:41:51;9.77;;;2.78;;
38972;SDS011;25333;50.762;4.470;2022-12-29T19:44:16;18.23;;;3.17;;
38972;SDS011;25333;50.762;4.470;2022-12-29T19:46:43;11.70;;;2.63;;
38972;SDS011;25333;50.762;4.470;2022-12-29T19:49:09;10.57;;;3.08;;
38972;SDS011;25333;50.762;4.470;2022-12-29T19:51:34;10.70;;;3.70;;
38972;SDS011;25333;50.762;4.470;2022-12-29T19:54:00;9.43;;;2.75;;
38972;SDS011;25333;50.762;4.470;2022-12-29T19:56:25;19.10;;;3.33;;
38972;SDS011;25333;50.762;4.470;2022-12-29T19:59:00;11.65;;;3.45;;
38972;SDS011;25333;50.762;4.470;2022-12-29T20:01:26;9.00;;;2.95;;
38972;SDS011;25333;50.762;4.470;2022-12-29T20:03:52;8.80;;;2.83;;
38972;SDS011;25333;50.762;4.470;2022-12-29T20:06:18;15.98;;;2.95;;
38972;SDS011;25333;50.762;4.470;2022-12-29T20:08:44;9.83;;;3.37;;
38972;SDS011;25333;50.762;4.470;2022-12-29T20:11:18;13.10;;;3.33;;
38972;SDS011;25333;50.762;4.470;2022-12-29T20:13:44;9.02;;;2.95;;
38972;SDS011;25333;50.762;4.470;2022-12-29T20:16:14;10.02;;;2.92;;
38972;SDS011;25333;50.762;4.470;2022-12-29T20:18:42;14.05;;;3.33;;
38972;SDS011;25333;50.762;4.470;2022-12-29T20:21:10;9.93;;;2.87;;
38972;SDS011;25333;50.762;4.470;2022-12-29T20:23:46;16.27;;;2.83;;